createdAt,value
2022-07-28T00:00:23.914Z,59.95
2022-07-28T00:05:42.068Z,59.92
2022-07-28T00:10:45.488Z,60.32
2022-07-28T00:15:48.917Z,60.45
2022-07-28T00:20:52.205Z,60.38
2022-07-28T00:25:55.722Z,60.29
2022-07-28T00:30:59.200Z,60.31
2022-07-28T00:36:11.895Z,60.44
2022-07-28T00:41:17.020Z,60.56
2022-07-28T00:46:22.317Z,60.78
2022-07-28T00:51:28.361Z,60.64
2022-07-28T00:56:32.488Z,60.78
2022-07-28T01:01:35.836Z,60.98
2022-07-28T01:07:24.571Z,60.87
2022-07-28T01:12:39.554Z,61.23
2022-07-28T01:17:52.493Z,61.38
2022-07-28T01:23:14.850Z,61.53
2022-07-28T01:28:59.547Z,61.66
2022-07-28T01:34:07.241Z,61.79
2022-07-28T01:39:12.450Z,61.90
2022-07-28T01:44:22.261Z,61.89
2022-07-28T01:49:31.054Z,62.00
2022-07-28T01:54:38.098Z,62.12
2022-07-28T01:59:43.083Z,62.35
2022-07-28T02:04:48.643Z,62.76
2022-07-28T02:09:54.029Z,62.80
2022-07-28T02:15:00.095Z,63.02
2022-07-28T02:20:06.018Z,63.37
2022-07-28T02:25:10.356Z,63.72
2022-07-28T02:30:42.294Z,64.18
2022-07-28T02:35:50.752Z,64.63
2022-07-28T02:40:57.963Z,64.86
2022-07-28T02:46:06.078Z,64.65
2022-07-28T02:51:14.423Z,65.02
2022-07-28T02:56:18.668Z,65.31
2022-07-28T03:01:23.319Z,65.46
2022-07-28T03:06:28.879Z,65.69
2022-07-28T03:11:32.578Z,65.86
2022-07-28T03:16:35.958Z,66.17
2022-07-28T03:21:41.763Z,66.12
2022-07-28T03:26:53.881Z,66.32
2022-07-28T03:31:59.863Z,66.30
2022-07-28T03:37:12.376Z,66.30
2022-07-28T03:42:18.791Z,66.44
2022-07-28T03:47:24.119Z,66.43
2022-07-28T03:52:27.530Z,66.66
2022-07-28T03:57:30.945Z,66.78
2022-07-28T04:02:35.100Z,66.79
2022-07-28T04:07:38.693Z,66.91
2022-07-28T04:12:46.304Z,66.78
2022-07-28T04:17:50.426Z,66.89
2022-07-28T04:22:54.819Z,66.65
2022-07-28T04:27:58.184Z,66.69
2022-07-28T04:33:01.594Z,66.66
2022-07-28T04:38:05.030Z,66.64
2022-07-28T04:43:10.589Z,66.62
2022-07-28T04:48:14.701Z,66.71
2022-07-28T04:53:20.887Z,66.49
2022-07-28T04:58:25.214Z,66.57
2022-07-28T05:03:32.742Z,66.40
2022-07-28T05:08:39.309Z,66.67
2022-07-28T05:13:42.574Z,66.57
2022-07-28T05:18:45.830Z,66.76
2022-07-28T05:23:49.245Z,66.65
2022-07-28T05:28:52.661Z,66.67
2022-07-28T05:33:56.176Z,66.72
2022-07-28T05:39:00.302Z,67.07
2022-07-28T05:44:03.717Z,66.96
2022-07-28T05:49:07.158Z,67.17
2022-07-28T05:54:10.706Z,67.09
2022-07-28T05:59:15.287Z,67.24
2022-07-28T06:04:28.167Z,67.04
2022-07-28T06:09:32.250Z,67.04
2022-07-28T06:14:35.663Z,67.04
2022-07-28T06:19:39.074Z,66.84
2022-07-28T06:24:42.694Z,66.60
2022-07-28T06:29:45.900Z,66.42
2022-07-28T06:34:49.212Z,66.11
2022-07-28T06:39:52.626Z,65.61
2022-07-28T06:44:59.259Z,65.00
2022-07-28T06:50:03.975Z,64.94
2022-07-28T06:55:07.882Z,64.53
2022-07-28T07:00:14.534Z,64.14
2022-07-28T07:05:17.883Z,63.89
2022-07-28T07:10:21.500Z,63.12
2022-07-28T07:15:24.710Z,62.80
2022-07-28T07:20:29.044Z,62.56
2022-07-28T07:25:32.457Z,62.11
2022-07-28T07:30:35.775Z,61.75
2022-07-28T07:35:39.181Z,61.62
2022-07-28T07:40:42.593Z,61.64
2022-07-28T07:45:46.312Z,61.40
2022-07-28T07:50:53.780Z,61.46
2022-07-28T07:55:58.156Z,60.61
2022-07-28T08:02:39.671Z,60.33
2022-07-28T08:07:43.495Z,59.90
2022-07-28T08:12:46.906Z,59.97
2022-07-28T08:17:50.320Z,59.52
2022-07-28T08:22:55.939Z,59.07
2022-07-28T08:27:59.706Z,57.58
2022-07-28T08:33:03.325Z,57.87
2022-07-28T08:38:06.736Z,57.60
2022-07-28T08:43:23.875Z,57.75
2022-07-28T08:48:37.844Z,57.70
2022-07-28T08:53:43.148Z,57.44
2022-07-28T08:58:46.411Z,56.78
2022-07-28T09:03:50.124Z,55.72
2022-07-28T09:08:53.506Z,55.28
2022-07-28T09:13:56.947Z,55.08
2022-07-28T09:19:00.358Z,54.11
2022-07-28T09:24:03.829Z,53.99
2022-07-28T09:29:08.683Z,53.46
2022-07-28T09:34:12.359Z,53.29
2022-07-28T09:39:32.956Z,53.04
2022-07-28T09:44:36.369Z,52.94
2022-07-28T09:49:43.072Z,53.23
2022-07-28T09:55:00.910Z,52.91
2022-07-28T10:20:37.341Z,50.00
2022-07-28T10:25:43.574Z,50.34
2022-07-28T10:30:50.239Z,50.19
2022-07-28T10:35:55.649Z,49.32
2022-07-28T10:41:03.349Z,49.00
2022-07-28T10:46:08.857Z,48.95
2022-07-28T10:51:14.895Z,49.35
2022-07-28T10:56:23.440Z,49.70
2022-07-28T11:01:53.094Z,49.81
2022-07-28T11:07:13.380Z,49.98
2022-07-28T11:12:17.109Z,50.16
2022-07-28T11:17:24.508Z,49.91
2022-07-28T11:22:37.032Z,49.63
2022-07-28T11:27:40.145Z,49.33
2022-07-28T11:32:55.076Z,49.12
2022-07-28T11:38:01.546Z,48.30
2022-07-28T11:43:35.525Z,47.00
2022-07-28T11:48:45.203Z,46.81
2022-07-28T11:53:53.627Z,46.66
2022-07-28T11:59:02.520Z,46.10
2022-07-28T12:04:15.065Z,45.87
2022-07-28T12:09:23.552Z,45.74
2022-07-28T12:14:30.679Z,45.09
2022-07-28T12:19:34.036Z,44.81
2022-07-28T12:24:45.110Z,44.80
2022-07-28T12:30:05.325Z,43.94
2022-07-28T12:35:09.727Z,44.47
2022-07-28T12:40:14.479Z,44.38
2022-07-28T12:45:17.729Z,44.88
2022-07-28T12:50:21.517Z,44.84
2022-07-28T12:55:32.335Z,45.16
2022-07-28T13:00:36.707Z,45.63
2022-07-28T13:06:00.464Z,46.06
2022-07-28T13:11:03.772Z,46.70
2022-07-28T13:16:17.700Z,47.19
2022-07-28T13:21:58.496Z,47.92
2022-07-28T13:27:04.574Z,49.41
2022-07-28T13:32:08.430Z,49.81
2022-07-28T13:37:13.120Z,50.17
2022-07-28T13:42:16.482Z,50.90
2022-07-28T13:47:19.787Z,50.84
2022-07-28T13:52:33.159Z,50.36
2022-07-28T13:57:38.647Z,50.19
2022-07-28T14:02:49.062Z,47.45
2022-07-28T14:07:52.486Z,43.63
2022-07-28T14:12:55.797Z,39.99
2022-07-28T14:17:59.059Z,36.90
2022-07-28T14:23:02.828Z,33.59
2022-07-28T14:28:06.138Z,32.23
2022-07-28T14:33:09.452Z,28.81
2022-07-28T14:38:51.214Z,26.88
2022-07-28T14:43:36.652Z,24.93
2022-07-28T14:48:41.709Z,21.31
2022-07-28T14:53:50.049Z,18.89
2022-07-28T14:58:55.494Z,18.82
2022-07-28T15:03:58.807Z,17.82
2022-07-28T15:09:02.630Z,17.48
2022-07-28T15:14:05.939Z,16.92
2022-07-28T15:19:09.766Z,16.02
2022-07-28T15:24:14.368Z,16.02
2022-07-28T15:29:19.762Z,16.70
2022-07-28T15:34:25.125Z,17.11
2022-07-28T15:39:30.884Z,16.99
2022-07-28T15:44:35.227Z,16.70
2022-07-28T15:49:40.177Z,16.08
2022-07-28T15:54:43.697Z,16.22
2022-07-28T15:59:51.414Z,16.47
2022-07-28T16:04:54.719Z,16.52
2022-07-28T16:09:58.370Z,16.26
2022-07-28T16:15:02.262Z,17.08
2022-07-28T16:20:10.352Z,18.09
2022-07-28T16:25:17.994Z,18.36
2022-07-28T16:30:21.717Z,18.06
2022-07-28T16:35:25.024Z,18.22
2022-07-28T16:40:30.693Z,18.46
2022-07-28T16:45:35.850Z,18.48
2022-07-28T16:50:39.263Z,18.54
2022-07-28T16:55:42.979Z,18.66
2022-07-28T17:00:46.395Z,19.07
2022-07-28T17:05:49.805Z,19.55
2022-07-28T17:10:53.066Z,20.36
2022-07-28T17:15:56.788Z,20.62
2022-07-28T17:21:00.261Z,20.98
2022-07-28T17:31:31.552Z,22.43
2022-07-28T17:36:39.059Z,24.12
2022-07-28T17:41:45.852Z,26.45
2022-07-28T17:46:50.091Z,30.25
2022-07-28T17:51:53.805Z,31.18
2022-07-28T17:56:57.741Z,32.97
2022-07-28T18:02:01.116Z,34.38
2022-07-28T18:07:05.585Z,34.32
2022-07-28T18:12:09.608Z,35.62
2022-07-28T18:17:12.870Z,36.67
2022-07-28T18:22:16.231Z,36.71
2022-07-28T18:27:20.156Z,37.09
2022-07-28T18:32:23.501Z,38.50
2022-07-28T18:37:26.680Z,39.70
2022-07-28T18:42:34.289Z,40.33
2022-07-28T18:47:46.592Z,40.95
2022-07-28T18:52:51.558Z,42.38
2022-07-28T18:57:54.972Z,43.64
2022-07-28T19:02:58.367Z,44.10
2022-07-28T19:08:01.799Z,47.16
2022-07-28T19:13:05.620Z,45.74
2022-07-28T19:18:15.588Z,48.09
2022-07-28T19:23:19.923Z,47.79
2022-07-28T19:28:24.005Z,49.25
2022-07-28T19:33:28.388Z,50.17
2022-07-28T19:38:31.800Z,50.05
2022-07-28T19:43:35.622Z,51.55
2022-07-28T19:48:38.967Z,53.57
2022-07-28T19:53:42.769Z,52.33
2022-07-28T19:58:50.582Z,54.41
2022-07-28T20:04:03.042Z,53.60
2022-07-28T20:09:08.463Z,54.60
2022-07-28T20:14:11.818Z,55.18
2022-07-28T20:19:15.345Z,55.71
2022-07-28T20:24:20.131Z,57.16
2022-07-28T20:29:23.297Z,58.02
2022-07-28T20:34:26.650Z,58.12
2022-07-28T20:39:44.369Z,58.91
2022-07-28T20:44:49.249Z,59.51
2022-07-28T20:49:52.761Z,60.48
2022-07-28T20:54:55.973Z,61.96
2022-07-28T20:59:59.178Z,62.62
2022-07-28T21:05:02.489Z,65.16
2022-07-28T21:10:07.529Z,66.60
2022-07-28T21:15:11.361Z,67.87
2022-07-28T21:20:14.674Z,65.31
2022-07-28T21:25:18.291Z,65.00
2022-07-28T21:30:28.220Z,65.72
2022-07-28T21:35:31.774Z,65.56
2022-07-28T21:40:35.090Z,65.62
2022-07-28T21:45:38.458Z,65.80
2022-07-28T21:50:41.707Z,67.42
2022-07-28T21:55:46.657Z,66.67
2022-07-28T22:00:49.981Z,66.01
2022-07-28T22:05:53.481Z,66.61
2022-07-28T22:10:57.100Z,67.06
2022-07-28T22:16:00.443Z,67.75
2022-07-28T22:21:04.029Z,68.18
2022-07-28T22:26:07.240Z,67.90
2022-07-28T22:31:10.655Z,68.24
2022-07-28T22:36:14.473Z,67.80
2022-07-28T22:41:17.683Z,68.07
2022-07-28T22:46:21.014Z,69.41
2022-07-28T22:51:24.304Z,69.78
2022-07-28T22:56:46.152Z,69.50
2022-07-28T23:01:49.255Z,69.45
2022-07-28T23:06:52.569Z,69.01
2022-07-28T23:11:56.351Z,69.36
2022-07-28T23:17:00.113Z,69.11
2022-07-28T23:22:03.420Z,69.22
2022-07-28T23:27:06.736Z,69.36
2022-07-28T23:32:13.818Z,70.02
2022-07-28T23:37:20.115Z,70.02
2022-07-28T23:42:23.422Z,69.87
2022-07-28T23:47:26.632Z,70.18
2022-07-28T23:52:30.047Z,70.33
2022-07-28T23:57:33.561Z,70.51
